sensor_id;sensor_type;location;lat;lon;timestamp;temperature;humidity
33095;DHT22;19459;53.044;8.910;2023-10-19T00:02:13;9.20;99.90
33095;DHT22;19459;53.044;8.910;2023-10-19T00:04:41;9.20;99.90
33095;DHT22;19459;53.044;8.910;2023-10-19T00:07:06;9.10;99.90
33095;DHT22;19459;53.044;8.910;2023-10-19T00:09:34;9.10;99.90
33095;DHT22;19459;53.044;8.910;2023-10-19T00:12:04;9.00;99.90
33095;DHT22;19459;53.044;8.910;2023-10-19T00:14:35;9.00;99.90
33095;DHT22;19459;53.044;8.910;2023-10-19T00:17:01;9.00;99.90
33095;DHT22;19459;53.044;8.910;2023-10-19T00:19:32;8.90;99.90
33095;DHT22;19459;53.044;8.910;2023-10-19T00:22:05;8.80;99.90
33095;DHT22;19459;53.044;8.910;2023-10-19T00:24:34;8.80;99.90
33095;DHT22;19459;53.044;8.910;2023-10-19T00:27:01;8.70;99.90
33095;DHT22;19459;53.044;8.910;2023-10-19T00:29:42;8.70;99.90
33095;DHT22;19459;53.044;8.910;2023-10-19T00:32:13;8.60;99.90
33095;DHT22;19459;53.044;8.910;2023-10-19T00:34:40;8.60;99.90
33095;DHT22;19459;53.044;8.910;2023-10-19T00:37:08;8.60;99.90
33095;DHT22;19459;53.044;8.910;2023-10-19T00:39:36;8.50;99.90
33095;DHT22;19459;53.044;8.910;2023-10-19T00:42:19;8.50;99.90
33095;DHT22;19459;53.044;8.910;2023-10-19T00:44:49;8.50;99.90
33095;DHT22;19459;53.044;8.910;2023-10-19T00:47:16;8.40;99.90
33095;DHT22;19459;53.044;8.910;2023-10-19T00:49:47;8.30;99.90
33095;DHT22;19459;53.044;8.910;2023-10-19T00:52:14;8.30;99.90
33095;DHT22;19459;53.044;8.910;2023-10-19T00:54:49;8.30;99.90
33095;DHT22;19459;53.044;8.910;2023-10-19T00:57:16;8.30;99.90
33095;DHT22;19459;53.044;8.910;2023-10-19T00:59:46;8.30;99.90
33095;DHT22;19459;53.044;8.910;2023-10-19T01:02:16;8.30;99.90
33095;DHT22;19459;53.044;8.910;2023-10-19T01:04:47;8.30;99.90
33095;DHT22;19459;53.044;8.910;2023-10-19T01:07:25;8.30;99.90
33095;DHT22;19459;53.044;8.910;2023-10-19T01:09:52;8.30;99.90
33095;DHT22;19459;53.044;8.910;2023-10-19T01:12:25;8.20;99.90
33095;DHT22;19459;53.044;8.910;2023-10-19T01:17:38;8.20;99.90
33095;DHT22;19459;53.044;8.910;2023-10-19T01:20:09;8.20;99.90
33095;DHT22;19459;53.044;8.910;2023-10-19T01:22:54;8.20;99.90
33095;DHT22;19459;53.044;8.910;2023-10-19T01:28:21;8.10;99.90
33095;DHT22;19459;53.044;8.910;2023-10-19T01:30:55;8.10;99.90
33095;DHT22;19459;53.044;8.910;2023-10-19T01:33:21;8.10;99.90
33095;DHT22;19459;53.044;8.910;2023-10-19T01:35:48;8.10;99.90
33095;DHT22;19459;53.044;8.910;2023-10-19T01:38:32;8.10;99.90
33095;DHT22;19459;53.044;8.910;2023-10-19T01:41:03;8.10;99.90
33095;DHT22;19459;53.044;8.910;2023-10-19T01:43:40;8.10;99.90
33095;DHT22;19459;53.044;8.910;2023-10-19T01:46:10;8.00;99.90
33095;DHT22;19459;53.044;8.910;2023-10-19T01:48:47;8.10;99.90
33095;DHT22;19459;53.044;8.910;2023-10-19T01:51:15;8.00;99.90
33095;DHT22;19459;53.044;8.910;2023-10-19T01:53:42;8.00;99.90
33095;DHT22;19459;53.044;8.910;2023-10-19T01:56:15;8.00;99.90
33095;DHT22;19459;53.044;8.910;2023-10-19T01:58:44;8.00;99.90
33095;DHT22;19459;53.044;8.910;2023-10-19T02:01:14;7.90;99.90
33095;DHT22;19459;53.044;8.910;2023-10-19T02:03:55;7.90;99.90
33095;DHT22;19459;53.044;8.910;2023-10-19T02:06:30;7.90;99.90
33095;DHT22;19459;53.044;8.910;2023-10-19T02:09:02;7.90;99.90
33095;DHT22;19459;53.044;8.910;2023-10-19T02:11:42;7.90;99.90
33095;DHT22;19459;53.044;8.910;2023-10-19T02:14:12;7.90;99.90
33095;DHT22;19459;53.044;8.910;2023-10-19T02:16:43;7.80;99.90
33095;DHT22;19459;53.044;8.910;2023-10-19T02:19:12;7.90;99.90
33095;DHT22;19459;53.044;8.910;2023-10-19T02:21:39;7.80;99.90
33095;DHT22;19459;53.044;8.910;2023-10-19T02:24:10;7.80;99.90
33095;DHT22;19459;53.044;8.910;2023-10-19T02:26:43;7.80;99.90
33095;DHT22;19459;53.044;8.910;2023-10-19T02:29:09;7.80;99.90
33095;DHT22;19459;53.044;8.910;2023-10-19T02:31:37;7.80;99.90
33095;DHT22;19459;53.044;8.910;2023-10-19T02:34:03;7.80;99.90
33095;DHT22;19459;53.044;8.910;2023-10-19T02:36:31;7.80;99.90
33095;DHT22;19459;53.044;8.910;2023-10-19T02:38:58;7.80;99.90
33095;DHT22;19459;53.044;8.910;2023-10-19T02:41:29;7.80;99.90
33095;DHT22;19459;53.044;8.910;2023-10-19T02:43:56;7.80;99.90
33095;DHT22;19459;53.044;8.910;2023-10-19T02:46:38;7.80;99.90
33095;DHT22;19459;53.044;8.910;2023-10-19T02:49:06;7.80;99.90
33095;DHT22;19459;53.044;8.910;2023-10-19T02:51:43;7.80;99.90
33095;DHT22;19459;53.044;8.910;2023-10-19T02:54:13;7.80;99.90
33095;DHT22;19459;53.044;8.910;2023-10-19T02:56:49;7.80;99.90
33095;DHT22;19459;53.044;8.910;2023-10-19T02:59:25;7.80;99.90
33095;DHT22;19459;53.044;8.910;2023-10-19T03:01:58;7.80;99.90
33095;DHT22;19459;53.044;8.910;2023-10-19T03:04:43;7.80;99.90
33095;DHT22;19459;53.044;8.910;2023-10-19T03:07:10;7.80;99.90
33095;DHT22;19459;53.044;8.910;2023-10-19T03:09:41;7.80;99.90
33095;DHT22;19459;53.044;8.910;2023-10-19T03:12:19;7.80;99.90
33095;DHT22;19459;53.044;8.910;2023-10-19T03:14:46;7.80;99.90
33095;DHT22;19459;53.044;8.910;2023-10-19T03:17:13;7.80;99.90
33095;DHT22;19459;53.044;8.910;2023-10-19T03:19:39;7.80;99.90
33095;DHT22;19459;53.044;8.910;2023-10-19T03:22:05;7.80;99.90
33095;DHT22;19459;53.044;8.910;2023-10-19T03:24:32;7.80;99.90
33095;DHT22;19459;53.044;8.910;2023-10-19T03:27:02;7.80;99.90
33095;DHT22;19459;53.044;8.910;2023-10-19T03:29:38;7.70;99.90
33095;DHT22;19459;53.044;8.910;2023-10-19T03:32:11;7.70;99.90
33095;DHT22;19459;53.044;8.910;2023-10-19T03:34:38;7.70;99.90
33095;DHT22;19459;53.044;8.910;2023-10-19T03:37:04;7.80;99.90
33095;DHT22;19459;53.044;8.910;2023-10-19T03:39:38;7.70;99.90
33095;DHT22;19459;53.044;8.910;2023-10-19T03:42:07;7.70;99.90
33095;DHT22;19459;53.044;8.910;2023-10-19T03:44:33;7.70;99.90
33095;DHT22;19459;53.044;8.910;2023-10-19T03:47:05;7.70;99.90
33095;DHT22;19459;53.044;8.910;2023-10-19T03:49:37;7.60;99.90
33095;DHT22;19459;53.044;8.910;2023-10-19T03:52:08;7.70;99.90
33095;DHT22;19459;53.044;8.910;2023-10-19T03:54:34;7.70;99.90
33095;DHT22;19459;53.044;8.910;2023-10-19T03:57:06;7.60;99.90
33095;DHT22;19459;53.044;8.910;2023-10-19T03:59:37;7.70;99.90
33095;DHT22;19459;53.044;8.910;2023-10-19T04:02:05;7.60;99.90
33095;DHT22;19459;53.044;8.910;2023-10-19T04:04:36;7.60;99.90
33095;DHT22;19459;53.044;8.910;2023-10-19T04:07:03;7.60;99.90
33095;DHT22;19459;53.044;8.910;2023-10-19T04:09:36;7.60;99.90
33095;DHT22;19459;53.044;8.910;2023-10-19T04:12:25;7.60;99.90
33095;DHT22;19459;53.044;8.910;2023-10-19T04:14:54;7.60;99.90
33095;DHT22;19459;53.044;8.910;2023-10-19T04:17:21;7.60;99.90
33095;DHT22;19459;53.044;8.910;2023-10-19T04:19:49;7.60;99.90
33095;DHT22;19459;53.044;8.910;2023-10-19T04:22:17;7.60;99.90
33095;DHT22;19459;53.044;8.910;2023-10-19T04:24:53;7.60;99.90
33095;DHT22;19459;53.044;8.910;2023-10-19T04:27:19;7.60;99.90
33095;DHT22;19459;53.044;8.910;2023-10-19T04:29:49;7.60;99.90
33095;DHT22;19459;53.044;8.910;2023-10-19T04:32:16;7.60;99.90
33095;DHT22;19459;53.044;8.910;2023-10-19T04:34:51;7.60;99.90
33095;DHT22;19459;53.044;8.910;2023-10-19T04:37:18;7.60;99.90
33095;DHT22;19459;53.044;8.910;2023-10-19T04:39:44;7.60;99.90
33095;DHT22;19459;53.044;8.910;2023-10-19T04:42:10;7.60;99.90
33095;DHT22;19459;53.044;8.910;2023-10-19T04:44:37;7.60;99.90
33095;DHT22;19459;53.044;8.910;2023-10-19T04:47:03;7.70;99.90
33095;DHT22;19459;53.044;8.910;2023-10-19T04:49:29;7.60;99.90
33095;DHT22;19459;53.044;8.910;2023-10-19T04:51:55;7.70;99.90
33095;DHT22;19459;53.044;8.910;2023-10-19T04:54:20;7.60;99.90
33095;DHT22;19459;53.044;8.910;2023-10-19T04:56:46;7.60;99.90
33095;DHT22;19459;53.044;8.910;2023-10-19T04:59:12;7.60;99.90
33095;DHT22;19459;53.044;8.910;2023-10-19T05:01:38;7.60;99.90
33095;DHT22;19459;53.044;8.910;2023-10-19T05:04:05;7.60;99.90
33095;DHT22;19459;53.044;8.910;2023-10-19T05:06:31;7.60;99.90
33095;DHT22;19459;53.044;8.910;2023-10-19T05:08:57;7.60;99.90
33095;DHT22;19459;53.044;8.910;2023-10-19T05:11:23;7.60;99.90
33095;DHT22;19459;53.044;8.910;2023-10-19T05:13:48;7.60;99.90
33095;DHT22;19459;53.044;8.910;2023-10-19T05:16:14;7.60;99.90
33095;DHT22;19459;53.044;8.910;2023-10-19T05:18:40;7.60;99.90
33095;DHT22;19459;53.044;8.910;2023-10-19T05:21:06;7.60;99.90
33095;DHT22;19459;53.044;8.910;2023-10-19T05:23:32;7.60;99.90
33095;DHT22;19459;53.044;8.910;2023-10-19T05:26:03;7.60;99.90
33095;DHT22;19459;53.044;8.910;2023-10-19T05:28:30;7.60;99.90
33095;DHT22;19459;53.044;8.910;2023-10-19T05:30:56;7.60;99.90
33095;DHT22;19459;53.044;8.910;2023-10-19T05:33:24;7.60;99.90
33095;DHT22;19459;53.044;8.910;2023-10-19T05:35:50;7.60;99.90
33095;DHT22;19459;53.044;8.910;2023-10-19T05:38:17;7.60;99.90
33095;DHT22;19459;53.044;8.910;2023-10-19T05:40:44;7.70;99.90
33095;DHT22;19459;53.044;8.910;2023-10-19T05:43:11;7.70;99.90
33095;DHT22;19459;53.044;8.910;2023-10-19T05:45:38;7.60;99.90
33095;DHT22;19459;53.044;8.910;2023-10-19T05:48:04;7.70;99.90
33095;DHT22;19459;53.044;8.910;2023-10-19T05:50:33;7.60;99.90
33095;DHT22;19459;53.044;8.910;2023-10-19T05:52:59;7.70;99.90
33095;DHT22;19459;53.044;8.910;2023-10-19T05:55:25;7.60;99.90
33095;DHT22;19459;53.044;8.910;2023-10-19T05:57:51;7.60;99.90
33095;DHT22;19459;53.044;8.910;2023-10-19T06:00:17;7.60;99.90
33095;DHT22;19459;53.044;8.910;2023-10-19T06:02:47;7.60;99.90
33095;DHT22;19459;53.044;8.910;2023-10-19T06:05:17;7.60;99.90
33095;DHT22;19459;53.044;8.910;2023-10-19T06:07:49;7.60;99.90
33095;DHT22;19459;53.044;8.910;2023-10-19T06:10:22;7.60;99.90
33095;DHT22;19459;53.044;8.910;2023-10-19T06:12:49;7.60;99.90
33095;DHT22;19459;53.044;8.910;2023-10-19T06:15:17;7.60;99.90
33095;DHT22;19459;53.044;8.910;2023-10-19T06:17:46;7.60;99.90
33095;DHT22;19459;53.044;8.910;2023-10-19T06:20:13;7.60;99.90
33095;DHT22;19459;53.044;8.910;2023-10-19T06:22:50;7.50;99.90
33095;DHT22;19459;53.044;8.910;2023-10-19T06:25:18;7.50;99.90
33095;DHT22;19459;53.044;8.910;2023-10-19T06:27:48;7.60;99.90
33095;DHT22;19459;53.044;8.910;2023-10-19T06:30:15;7.60;99.90
33095;DHT22;19459;53.044;8.910;2023-10-19T06:32:46;7.60;99.90
33095;DHT22;19459;53.044;8.910;2023-10-19T06:35:13;7.60;99.90
33095;DHT22;19459;53.044;8.910;2023-10-19T06:37:39;7.60;99.90
33095;DHT22;19459;53.044;8.910;2023-10-19T06:40:06;7.60;99.90
33095;DHT22;19459;53.044;8.910;2023-10-19T06:42:32;7.60;99.90
33095;DHT22;19459;53.044;8.910;2023-10-19T06:44:59;7.60;99.90
33095;DHT22;19459;53.044;8.910;2023-10-19T06:47:25;7.60;99.90
33095;DHT22;19459;53.044;8.910;2023-10-19T06:49:51;7.60;99.90
33095;DHT22;19459;53.044;8.910;2023-10-19T06:52:17;7.60;99.90
33095;DHT22;19459;53.044;8.910;2023-10-19T06:54:42;7.60;99.90
33095;DHT22;19459;53.044;8.910;2023-10-19T06:57:08;7.60;99.90
33095;DHT22;19459;53.044;8.910;2023-10-19T06:59:36;7.60;99.90
33095;DHT22;19459;53.044;8.910;2023-10-19T07:02:02;7.60;99.90
33095;DHT22;19459;53.044;8.910;2023-10-19T07:04:28;7.70;99.90
33095;DHT22;19459;53.044;8.910;2023-10-19T07:06:55;7.60;99.90
33095;DHT22;19459;53.044;8.910;2023-10-19T07:09:22;7.60;99.90
33095;DHT22;19459;53.044;8.910;2023-10-19T07:11:49;7.70;99.90
33095;DHT22;19459;53.044;8.910;2023-10-19T07:14:20;7.60;99.90
33095;DHT22;19459;53.044;8.910;2023-10-19T07:16:51;7.70;99.90
33095;DHT22;19459;53.044;8.910;2023-10-19T07:19:18;7.70;99.90
33095;DHT22;19459;53.044;8.910;2023-10-19T07:21:44;7.70;99.90
33095;DHT22;19459;53.044;8.910;2023-10-19T07:24:14;7.70;99.90
33095;DHT22;19459;53.044;8.910;2023-10-19T07:26:44;7.70;99.90
33095;DHT22;19459;53.044;8.910;2023-10-19T07:29:20;7.70;99.90
33095;DHT22;19459;53.044;8.910;2023-10-19T07:31:45;7.70;99.90
33095;DHT22;19459;53.044;8.910;2023-10-19T07:34:12;7.70;99.90
33095;DHT22;19459;53.044;8.910;2023-10-19T07:36:41;7.70;99.90
33095;DHT22;19459;53.044;8.910;2023-10-19T07:39:10;7.70;99.90
33095;DHT22;19459;53.044;8.910;2023-10-19T07:41:44;7.70;99.90
33095;DHT22;19459;53.044;8.910;2023-10-19T07:44:10;7.80;99.90
33095;DHT22;19459;53.044;8.910;2023-10-19T07:46:37;7.80;99.90
33095;DHT22;19459;53.044;8.910;2023-10-19T07:49:03;7.80;99.90
33095;DHT22;19459;53.044;8.910;2023-10-19T07:51:29;7.80;99.90
33095;DHT22;19459;53.044;8.910;2023-10-19T07:53:58;7.80;99.90
33095;DHT22;19459;53.044;8.910;2023-10-19T07:56:23;7.80;99.90
33095;DHT22;19459;53.044;8.910;2023-10-19T07:58:50;7.80;99.90
33095;DHT22;19459;53.044;8.910;2023-10-19T08:01:16;7.80;99.90
33095;DHT22;19459;53.044;8.910;2023-10-19T08:03:41;7.90;99.90
33095;DHT22;19459;53.044;8.910;2023-10-19T08:06:07;7.90;99.90
33095;DHT22;19459;53.044;8.910;2023-10-19T08:08:33;7.90;99.90
33095;DHT22;19459;53.044;8.910;2023-10-19T08:11:00;8.00;99.90
33095;DHT22;19459;53.044;8.910;2023-10-19T08:13:26;8.00;99.90
33095;DHT22;19459;53.044;8.910;2023-10-19T08:15:53;8.00;99.90
33095;DHT22;19459;53.044;8.910;2023-10-19T08:18:18;8.00;99.90
33095;DHT22;19459;53.044;8.910;2023-10-19T08:20:45;8.00;99.90
33095;DHT22;19459;53.044;8.910;2023-10-19T08:23:12;8.00;99.90
33095;DHT22;19459;53.044;8.910;2023-10-19T08:25:42;8.00;99.90
33095;DHT22;19459;53.044;8.910;2023-10-19T08:28:09;8.00;99.90
33095;DHT22;19459;53.044;8.910;2023-10-19T08:30:36;8.10;99.90
33095;DHT22;19459;53.044;8.910;2023-10-19T08:33:03;8.10;99.90
33095;DHT22;19459;53.044;8.910;2023-10-19T08:35:34;8.10;99.90
33095;DHT22;19459;53.044;8.910;2023-10-19T08:38:01;8.20;99.90
33095;DHT22;19459;53.044;8.910;2023-10-19T08:40:29;8.10;99.90
33095;DHT22;19459;53.044;8.910;2023-10-19T08:43:14;8.20;99.90
33095;DHT22;19459;53.044;8.910;2023-10-19T08:45:43;8.20;99.90
33095;DHT22;19459;53.044;8.910;2023-10-19T08:48:10;8.20;99.90
33095;DHT22;19459;53.044;8.910;2023-10-19T08:50:36;8.20;99.90
33095;DHT22;19459;53.044;8.910;2023-10-19T08:53:08;8.20;99.90
33095;DHT22;19459;53.044;8.910;2023-10-19T08:55:34;8.20;99.90
33095;DHT22;19459;53.044;8.910;2023-10-19T08:58:00;8.20;99.90
33095;DHT22;19459;53.044;8.910;2023-10-19T09:00:27;8.20;99.90
33095;DHT22;19459;53.044;8.910;2023-10-19T09:02:53;8.30;99.90
33095;DHT22;19459;53.044;8.910;2023-10-19T09:05:20;8.30;99.90
33095;DHT22;19459;53.044;8.910;2023-10-19T09:07:54;8.30;99.90
33095;DHT22;19459;53.044;8.910;2023-10-19T09:10:24;8.30;99.90
33095;DHT22;19459;53.044;8.910;2023-10-19T09:13:07;8.40;99.90
33095;DHT22;19459;53.044;8.910;2023-10-19T09:15:36;8.30;99.90
33095;DHT22;19459;53.044;8.910;2023-10-19T09:20:44;8.40;99.90
33095;DHT22;19459;53.044;8.910;2023-10-19T09:23:30;8.40;99.90
33095;DHT22;19459;53.044;8.910;2023-10-19T09:25:58;8.40;99.90
33095;DHT22;19459;53.044;8.910;2023-10-19T09:28:35;8.50;99.90
33095;DHT22;19459;53.044;8.910;2023-10-19T09:31:01;8.50;99.90
33095;DHT22;19459;53.044;8.910;2023-10-19T09:33:28;8.50;99.90
33095;DHT22;19459;53.044;8.910;2023-10-19T09:36:00;8.60;99.90
33095;DHT22;19459;53.044;8.910;2023-10-19T09:38:27;8.60;99.90
33095;DHT22;19459;53.044;8.910;2023-10-19T09:40:54;8.60;99.90
33095;DHT22;19459;53.044;8.910;2023-10-19T09:43:45;8.60;99.90
33095;DHT22;19459;53.044;8.910;2023-10-19T09:46:20;8.60;99.90
33095;DHT22;19459;53.044;8.910;2023-10-19T09:48:48;8.60;99.90
33095;DHT22;19459;53.044;8.910;2023-10-19T09:51:14;8.60;99.90
33095;DHT22;19459;53.044;8.910;2023-10-19T09:53:44;8.70;99.90
33095;DHT22;19459;53.044;8.910;2023-10-19T09:56:20;8.70;99.90
33095;DHT22;19459;53.044;8.910;2023-10-19T09:58:53;8.70;99.90
33095;DHT22;19459;53.044;8.910;2023-10-19T10:01:21;8.70;99.90
33095;DHT22;19459;53.044;8.910;2023-10-19T10:03:53;8.70;99.90
33095;DHT22;19459;53.044;8.910;2023-10-19T10:06:30;8.70;99.90
33095;DHT22;19459;53.044;8.910;2023-10-19T10:09:20;8.70;99.90
33095;DHT22;19459;53.044;8.910;2023-10-19T10:11:51;8.70;99.90
33095;DHT22;19459;53.044;8.910;2023-10-19T10:14:25;8.70;99.90
33095;DHT22;19459;53.044;8.910;2023-10-19T10:17:01;8.70;99.90
33095;DHT22;19459;53.044;8.910;2023-10-19T10:19:27;8.70;99.90
33095;DHT22;19459;53.044;8.910;2023-10-19T10:22:09;8.70;99.90
33095;DHT22;19459;53.044;8.910;2023-10-19T10:24:41;8.70;99.90
33095;DHT22;19459;53.044;8.910;2023-10-19T10:27:09;8.70;99.90
33095;DHT22;19459;53.044;8.910;2023-10-19T10:29:59;8.70;99.90
33095;DHT22;19459;53.044;8.910;2023-10-19T10:32:50;8.80;99.90
33095;DHT22;19459;53.044;8.910;2023-10-19T10:38:10;8.80;99.90
33095;DHT22;19459;53.044;8.910;2023-10-19T10:40:57;8.80;99.90
33095;DHT22;19459;53.044;8.910;2023-10-19T10:43:23;8.90;99.90
33095;DHT22;19459;53.044;8.910;2023-10-19T10:45:48;8.80;99.90
33095;DHT22;19459;53.044;8.910;2023-10-19T10:48:18;8.80;99.90
33095;DHT22;19459;53.044;8.910;2023-10-19T10:50:56;8.80;99.90
33095;DHT22;19459;53.044;8.910;2023-10-19T10:54:06;8.80;99.90
33095;DHT22;19459;53.044;8.910;2023-10-19T10:56:13;8.80;99.90
33095;DHT22;19459;53.044;8.910;2023-10-19T10:58:40;8.90;99.90
33095;DHT22;19459;53.044;8.910;2023-10-19T11:01:06;8.90;99.90
33095;DHT22;19459;53.044;8.910;2023-10-19T11:03:32;8.90;99.90
33095;DHT22;19459;53.044;8.910;2023-10-19T11:06:09;8.90;99.90
33095;DHT22;19459;53.044;8.910;2023-10-19T11:08:37;8.90;99.90
33095;DHT22;19459;53.044;8.910;2023-10-19T11:11:25;8.90;99.90
33095;DHT22;19459;53.044;8.910;2023-10-19T11:13:51;8.90;99.90
33095;DHT22;19459;53.044;8.910;2023-10-19T11:16:22;9.00;99.90
33095;DHT22;19459;53.044;8.910;2023-10-19T11:18:49;9.00;99.90
33095;DHT22;19459;53.044;8.910;2023-10-19T11:21:15;9.00;99.90
33095;DHT22;19459;53.044;8.910;2023-10-19T11:23:46;9.00;99.90
33095;DHT22;19459;53.044;8.910;2023-10-19T11:26:15;9.00;99.90
33095;DHT22;19459;53.044;8.910;2023-10-19T11:28:42;9.00;99.90
33095;DHT22;19459;53.044;8.910;2023-10-19T11:31:21;9.10;99.90
33095;DHT22;19459;53.044;8.910;2023-10-19T11:33:48;9.10;99.90
33095;DHT22;19459;53.044;8.910;2023-10-19T11:36:17;9.00;99.90
33095;DHT22;19459;53.044;8.910;2023-10-19T11:38:45;9.00;99.90
33095;DHT22;19459;53.044;8.910;2023-10-19T11:41:13;9.00;99.90
33095;DHT22;19459;53.044;8.910;2023-10-19T11:43:45;8.90;99.90
33095;DHT22;19459;53.044;8.910;2023-10-19T11:46:11;8.90;99.90
33095;DHT22;19459;53.044;8.910;2023-10-19T11:48:38;8.90;99.90
33095;DHT22;19459;53.044;8.910;2023-10-19T11:51:06;8.90;99.90
33095;DHT22;19459;53.044;8.910;2023-10-19T11:53:36;8.80;99.90
33095;DHT22;19459;53.044;8.910;2023-10-19T11:56:07;8.80;99.90
33095;DHT22;19459;53.044;8.910;2023-10-19T11:58:34;8.80;99.90
33095;DHT22;19459;53.044;8.910;2023-10-19T12:01:02;8.80;99.90
33095;DHT22;19459;53.044;8.910;2023-10-19T12:03:31;8.80;99.90
33095;DHT22;19459;53.044;8.910;2023-10-19T12:05:57;8.80;99.90
33095;DHT22;19459;53.044;8.910;2023-10-19T12:08:23;8.80;99.90
33095;DHT22;19459;53.044;8.910;2023-10-19T12:10:50;8.80;99.90
33095;DHT22;19459;53.044;8.910;2023-10-19T12:13:16;8.80;99.90
33095;DHT22;19459;53.044;8.910;2023-10-19T12:15:42;8.70;99.90
33095;DHT22;19459;53.044;8.910;2023-10-19T12:18:17;8.70;99.90
33095;DHT22;19459;53.044;8.910;2023-10-19T12:20:46;8.70;99.90
33095;DHT22;19459;53.044;8.910;2023-10-19T12:23:13;8.70;99.90
33095;DHT22;19459;53.044;8.910;2023-10-19T12:25:40;8.70;99.90
33095;DHT22;19459;53.044;8.910;2023-10-19T12:28:07;8.70;99.90
33095;DHT22;19459;53.044;8.910;2023-10-19T12:30:39;8.70;99.90
33095;DHT22;19459;53.044;8.910;2023-10-19T12:33:06;8.80;99.90
33095;DHT22;19459;53.044;8.910;2023-10-19T12:35:42;8.80;99.90
33095;DHT22;19459;53.044;8.910;2023-10-19T12:38:14;8.80;99.90
33095;DHT22;19459;53.044;8.910;2023-10-19T12:40:44;8.70;99.90
33095;DHT22;19459;53.044;8.910;2023-10-19T12:43:11;8.70;99.90
33095;DHT22;19459;53.044;8.910;2023-10-19T12:45:38;8.70;99.90
33095;DHT22;19459;53.044;8.910;2023-10-19T12:48:04;8.70;99.90
33095;DHT22;19459;53.044;8.910;2023-10-19T12:50:30;8.70;99.90
33095;DHT22;19459;53.044;8.910;2023-10-19T12:52:56;8.60;99.90
33095;DHT22;19459;53.044;8.910;2023-10-19T12:55:22;8.60;99.90
33095;DHT22;19459;53.044;8.910;2023-10-19T12:57:52;8.60;99.90
33095;DHT22;19459;53.044;8.910;2023-10-19T13:00:19;8.60;99.90
33095;DHT22;19459;53.044;8.910;2023-10-19T13:03:03;8.60;99.90
33095;DHT22;19459;53.044;8.910;2023-10-19T13:05:37;8.60;99.90
33095;DHT22;19459;53.044;8.910;2023-10-19T13:08:05;8.60;99.90
33095;DHT22;19459;53.044;8.910;2023-10-19T13:10:32;8.60;99.90
33095;DHT22;19459;53.044;8.910;2023-10-19T13:13:00;8.60;99.90
33095;DHT22;19459;53.044;8.910;2023-10-19T13:15:35;8.60;99.90
33095;DHT22;19459;53.044;8.910;2023-10-19T13:18:02;8.60;99.90
33095;DHT22;19459;53.044;8.910;2023-10-19T13:20:29;8.60;99.90
33095;DHT22;19459;53.044;8.910;2023-10-19T13:23:02;8.60;99.90
33095;DHT22;19459;53.044;8.910;2023-10-19T13:25:37;8.50;99.90
33095;DHT22;19459;53.044;8.910;2023-10-19T13:28:16;8.50;99.90
33095;DHT22;19459;53.044;8.910;2023-10-19T13:30:47;8.50;99.90
33095;DHT22;19459;53.044;8.910;2023-10-19T13:33:14;8.50;99.90
33095;DHT22;19459;53.044;8.910;2023-10-19T13:35:41;8.50;99.90
33095;DHT22;19459;53.044;8.910;2023-10-19T13:38:08;8.50;99.90
33095;DHT22;19459;53.044;8.910;2023-10-19T13:40:45;8.50;99.90
33095;DHT22;19459;53.044;8.910;2023-10-19T13:43:18;8.50;99.90
33095;DHT22;19459;53.044;8.910;2023-10-19T13:45:46;8.50;99.90
33095;DHT22;19459;53.044;8.910;2023-10-19T13:48:13;8.50;99.90
33095;DHT22;19459;53.044;8.910;2023-10-19T13:50:48;8.50;99.90
33095;DHT22;19459;53.044;8.910;2023-10-19T13:53:15;8.50;99.90
33095;DHT22;19459;53.044;8.910;2023-10-19T13:55:42;8.50;99.90
33095;DHT22;19459;53.044;8.910;2023-10-19T13:58:08;8.50;99.90
33095;DHT22;19459;53.044;8.910;2023-10-19T14:00:35;8.50;99.90
33095;DHT22;19459;53.044;8.910;2023-10-19T14:03:07;8.50;99.90
33095;DHT22;19459;53.044;8.910;2023-10-19T14:05:37;8.40;99.90
33095;DHT22;19459;53.044;8.910;2023-10-19T14:08:13;8.40;99.90
33095;DHT22;19459;53.044;8.910;2023-10-19T14:11:04;8.40;99.90
33095;DHT22;19459;53.044;8.910;2023-10-19T14:13:58;8.30;99.90
33095;DHT22;19459;53.044;8.910;2023-10-19T14:16:34;8.30;99.90
33095;DHT22;19459;53.044;8.910;2023-10-19T14:19:00;8.30;99.90
33095;DHT22;19459;53.044;8.910;2023-10-19T14:21:28;8.30;99.90
33095;DHT22;19459;53.044;8.910;2023-10-19T14:23:55;8.30;99.90
33095;DHT22;19459;53.044;8.910;2023-10-19T14:26:21;8.30;99.90
33095;DHT22;19459;53.044;8.910;2023-10-19T14:28:46;8.30;99.90
33095;DHT22;19459;53.044;8.910;2023-10-19T14:31:12;8.20;99.90
33095;DHT22;19459;53.044;8.910;2023-10-19T14:33:39;8.20;99.90
33095;DHT22;19459;53.044;8.910;2023-10-19T14:36:06;8.30;99.90
33095;DHT22;19459;53.044;8.910;2023-10-19T14:38:33;8.20;99.90
33095;DHT22;19459;53.044;8.910;2023-10-19T14:40:59;8.20;99.90
33095;DHT22;19459;53.044;8.910;2023-10-19T14:43:25;8.30;99.90
33095;DHT22;19459;53.044;8.910;2023-10-19T14:45:55;8.30;99.90
33095;DHT22;19459;53.044;8.910;2023-10-19T14:48:23;8.20;99.90
33095;DHT22;19459;53.044;8.910;2023-10-19T14:50:49;8.20;99.90
33095;DHT22;19459;53.044;8.910;2023-10-19T14:53:18;8.20;99.90
33095;DHT22;19459;53.044;8.910;2023-10-19T14:55:44;8.20;99.90
33095;DHT22;19459;53.044;8.910;2023-10-19T14:58:13;8.20;99.90
33095;DHT22;19459;53.044;8.910;2023-10-19T15:00:38;8.20;99.90
33095;DHT22;19459;53.044;8.910;2023-10-19T15:03:08;8.20;99.90
33095;DHT22;19459;53.044;8.910;2023-10-19T15:05:35;8.20;99.90
33095;DHT22;19459;53.044;8.910;2023-10-19T15:08:02;8.30;99.90
33095;DHT22;19459;53.044;8.910;2023-10-19T15:10:30;8.20;99.90
33095;DHT22;19459;53.044;8.910;2023-10-19T15:12:57;8.20;99.90
33095;DHT22;19459;53.044;8.910;2023-10-19T15:15:27;8.20;99.90
33095;DHT22;19459;53.044;8.910;2023-10-19T15:17:54;8.20;99.90
33095;DHT22;19459;53.044;8.910;2023-10-19T15:20:24;8.20;99.90
33095;DHT22;19459;53.044;8.910;2023-10-19T15:22:51;8.20;99.90
33095;DHT22;19459;53.044;8.910;2023-10-19T15:25:19;8.20;99.90
33095;DHT22;19459;53.044;8.910;2023-10-19T15:27:46;8.20;99.90
33095;DHT22;19459;53.044;8.910;2023-10-19T15:30:14;8.20;99.90
33095;DHT22;19459;53.044;8.910;2023-10-19T15:32:43;8.20;99.90
33095;DHT22;19459;53.044;8.910;2023-10-19T15:35:11;8.20;99.90
33095;DHT22;19459;53.044;8.910;2023-10-19T15:37:39;8.20;99.90
33095;DHT22;19459;53.044;8.910;2023-10-19T15:40:05;8.20;99.90
33095;DHT22;19459;53.044;8.910;2023-10-19T15:42:31;8.20;99.90
33095;DHT22;19459;53.044;8.910;2023-10-19T15:45:01;8.20;99.90
33095;DHT22;19459;53.044;8.910;2023-10-19T15:47:28;8.20;99.90
33095;DHT22;19459;53.044;8.910;2023-10-19T15:49:54;8.20;99.90
33095;DHT22;19459;53.044;8.910;2023-10-19T15:52:25;8.20;99.90
33095;DHT22;19459;53.044;8.910;2023-10-19T15:54:52;8.20;99.90
33095;DHT22;19459;53.044;8.910;2023-10-19T15:57:18;8.20;99.90
33095;DHT22;19459;53.044;8.910;2023-10-19T15:59:45;8.20;99.90
33095;DHT22;19459;53.044;8.910;2023-10-19T16:02:11;8.20;99.90
33095;DHT22;19459;53.044;8.910;2023-10-19T16:04:41;8.10;99.90
33095;DHT22;19459;53.044;8.910;2023-10-19T16:07:09;8.10;99.90
33095;DHT22;19459;53.044;8.910;2023-10-19T16:09:36;8.10;99.90
33095;DHT22;19459;53.044;8.910;2023-10-19T16:12:02;8.10;99.90